Time;durP1;ratioP1;P1;durP2;ratioP2;P2;SDS_P1;SDS_P2;PMS_P1;PMS_P2;Temp;Humidity;BMP_temperature;BMP_pressure;BME280_temperature;BME280_humidity;BME280_pressure;Samples;Min_cycle;Max_cycle;Signal;HPM_P1;HPM_P2
2023/02/03 00:02:05;;;;;;;39.60;28.02;;;;;;;;;;5052197;28;20056;-58
2023/02/03 00:04:31;;;;;;;37.13;27.20;;;;;;;;;;5069261;28;20025;-57
2023/02/03 00:06:57;;;;;;;35.45;27.27;;;;;;;;;;5051686;28;20025;-60
2023/02/03 00:09:23;;;;;;;37.05;26.90;;;;;;;;;;5069853;28;20035;-55
2023/02/03 00:11:49;;;;;;;36.55;27.60;;;;;;;;;;5069746;28;20052;-58
2023/02/03 00:14:16;;;;;;;36.33;26.42;;;;;;;;;;5069159;28;20029;-59
2023/02/03 00:16:42;;;;;;;36.13;25.85;;;;;;;;;;5051783;28;20098;-58
2023/02/03 00:19:08;;;;;;;35.65;27.67;;;;;;;;;;5069309;28;20016;-59
2023/02/03 00:21:34;;;;;;;36.90;26.27;;;;;;;;;;5070089;28;20055;-59
2023/02/03 00:24:00;;;;;;;34.75;27.45;;;;;;;;;;5069058;28;20064;-58
2023/02/03 00:26:27;;;;;;;33.28;26.27;;;;;;;;;;5051761;28;20063;-59
2023/02/03 00:28:53;;;;;;;34.97;26.92;;;;;;;;;;5051295;28;20497;-58
2023/02/03 00:31:22;;;;;;;35.72;25.55;;;;;;;;;;5048252;28;20409;-55
2023/02/03 00:33:53;;;;;;;36.67;29.48;;;;;;;;;;5071497;22;20524;-65
2023/02/03 00:36:19;;;;;;;36.03;25.67;;;;;;;;;;5052345;28;20048;-64
2023/02/03 00:38:45;;;;;;;31.75;24.15;;;;;;;;;;5052279;28;20468;-65
2023/02/03 00:41:11;;;;;;;36.58;25.95;;;;;;;;;;5052149;28;20117;-64
2023/02/03 00:43:37;;;;;;;37.67;25.40;;;;;;;;;;5051707;28;20130;-63
2023/02/03 00:46:03;;;;;;;34.95;26.20;;;;;;;;;;5034811;28;20028;-63
2023/02/03 00:48:29;;;;;;;35.35;24.92;;;;;;;;;;5052626;28;20032;-63
2023/02/03 00:50:55;;;;;;;34.90;25.27;;;;;;;;;;5034840;28;20031;-63
2023/02/03 00:53:21;;;;;;;32.92;24.58;;;;;;;;;;5052958;28;20840;-63
2023/02/03 00:55:47;;;;;;;33.90;25.77;;;;;;;;;;5053611;28;20025;-64
2023/02/03 00:58:13;;;;;;;30.30;23.70;;;;;;;;;;5035698;28;20393;-63
2023/02/03 01:00:39;;;;;;;32.63;24.33;;;;;;;;;;5035593;28;20021;-65
2023/02/03 01:03:05;;;;;;;33.40;23.77;;;;;;;;;;5034762;28;20025;-65
2023/02/03 01:05:31;;;;;;;35.13;23.45;;;;;;;;;;5034951;28;20554;-64
2023/02/03 01:07:57;;;;;;;32.85;23.98;;;;;;;;;;5053063;28;20489;-64
2023/02/03 01:10:23;;;;;;;30.88;23.38;;;;;;;;;;5035554;28;20017;-65
2023/02/03 01:12:49;;;;;;;38.33;24.02;;;;;;;;;;5053063;28;20492;-64
2023/02/03 01:15:15;;;;;;;31.80;22.80;;;;;;;;;;5052493;28;20025;-64
2023/02/03 01:17:41;;;;;;;30.98;24.05;;;;;;;;;;5035095;28;20036;-64
2023/02/03 01:20:07;;;;;;;35.05;22.73;;;;;;;;;;5052918;28;20021;-65
2023/02/03 01:22:33;;;;;;;31.77;24.10;;;;;;;;;;5053030;28;20539;-65
2023/02/03 01:24:59;;;;;;;32.20;23.65;;;;;;;;;;5034460;28;20025;-65
2023/02/03 01:27:25;;;;;;;32.03;23.83;;;;;;;;;;5034828;28;20074;-65
2023/02/03 01:29:51;;;;;;;29.85;22.98;;;;;;;;;;5052621;28;20366;-65
2023/02/03 01:32:17;;;;;;;31.42;22.52;;;;;;;;;;5034582;28;20029;-65
2023/02/03 01:34:43;;;;;;;34.53;21.85;;;;;;;;;;5034074;28;20021;-65
2023/02/03 01:37:09;;;;;;;33.50;21.75;;;;;;;;;;5034738;28;20029;-65
2023/02/03 01:39:36;;;;;;;31.42;20.58;;;;;;;;;;5052614;28;20589;-65
2023/02/03 01:42:02;;;;;;;30.42;21.70;;;;;;;;;;5052575;28;20405;-65
2023/02/03 01:44:40;;;;;;;32.40;22.02;;;;;;;;;;5033553;28;20107;-66
2023/02/03 01:47:12;;;;;;;33.15;24.67;;;;;;;;;;5052387;28;20029;-64
2023/02/03 01:49:39;;;;;;;33.45;25.15;;;;;;;;;;5034483;28;20083;-65
2023/02/03 01:52:05;;;;;;;32.85;22.27;;;;;;;;;;5034514;28;20503;-65
2023/02/03 01:54:33;;;;;;;32.05;21.80;;;;;;;;;;5034080;28;20119;-64
2023/02/03 01:57:01;;;;;;;35.95;23.02;;;;;;;;;;5052404;28;20039;-65
2023/02/03 01:59:28;;;;;;;36.70;22.48;;;;;;;;;;5034288;28;20025;-65
2023/02/03 02:01:54;;;;;;;29.73;21.42;;;;;;;;;;5052205;28;20033;-65
2023/02/03 02:04:21;;;;;;;30.10;22.13;;;;;;;;;;5034055;28;20412;-66
2023/02/03 02:06:47;;;;;;;34.35;21.40;;;;;;;;;;5052467;28;20017;-65
2023/02/03 02:09:14;;;;;;;38.22;23.08;;;;;;;;;;5034800;28;20382;-65
2023/02/03 02:11:40;;;;;;;26.70;20.42;;;;;;;;;;5034996;28;20405;-64
2023/02/03 02:14:06;;;;;;;29.42;20.45;;;;;;;;;;5034151;28;20036;-64
2023/02/03 02:16:35;;;;;;;34.50;23.30;;;;;;;;;;5034294;28;20427;-64
2023/02/03 02:19:01;;;;;;;34.63;21.05;;;;;;;;;;5052593;28;20067;-64
2023/02/03 02:21:50;;;;;;;27.88;20.08;;;;;;;;;;5034651;28;20393;-63
2023/02/03 02:24:26;;;;;;;23.10;18.20;;;;;;;;;;5043789;28;20044;-64
2023/02/03 02:27:11;;;;;;;29.92;20.50;;;;;;;;;;5052478;28;20163;-63
2023/02/03 02:29:55;;;;;;;27.38;19.30;;;;;;;;;;5034569;28;20029;-63
2023/02/03 02:32:28;;;;;;;29.92;19.17;;;;;;;;;;5051941;28;20079;-64
2023/02/03 02:35:06;;;;;;;28.60;20.48;;;;;;;;;;5051686;28;20087;-64
2023/02/03 02:37:38;;;;;;;29.27;18.88;;;;;;;;;;5052185;28;20029;-65
2023/02/03 02:40:14;;;;;;;28.45;19.20;;;;;;;;;;5034525;28;20029;-66
2023/02/03 02:42:52;;;;;;;25.48;18.77;;;;;;;;;;5034591;28;20017;-65
2023/02/03 02:45:27;;;;;;;28.25;20.02;;;;;;;;;;5033527;28;20021;-63
2023/02/03 02:47:57;;;;;;;29.08;19.08;;;;;;;;;;5034327;28;20517;-64
2023/02/03 02:50:24;;;;;;;26.40;18.70;;;;;;;;;;5052160;28;20074;-64
2023/02/03 02:52:51;;;;;;;27.05;18.48;;;;;;;;;;5034227;28;20033;-63
2023/02/03 02:55:23;;;;;;;24.52;18.95;;;;;;;;;;5053463;28;20486;-65
2023/02/03 02:57:50;;;;;;;27.00;18.83;;;;;;;;;;5038096;28;20435;-64
2023/02/03 03:00:16;;;;;;;25.88;19.20;;;;;;;;;;5037988;28;20500;-64
2023/02/03 03:02:42;;;;;;;28.33;18.73;;;;;;;;;;5055774;28;20033;-65
2023/02/03 03:05:09;;;;;;;26.00;18.80;;;;;;;;;;5055299;28;20024;-64
2023/02/03 03:07:40;;;;;;;26.30;18.38;;;;;;;;;;5055767;28;20025;-64
2023/02/03 03:10:08;;;;;;;31.20;17.92;;;;;;;;;;5037625;28;20025;-65
2023/02/03 03:12:35;;;;;;;24.48;17.60;;;;;;;;;;5055449;28;20033;-64
2023/02/03 03:15:07;;;;;;;27.20;18.13;;;;;;;;;;5054775;28;20035;-64
2023/02/03 03:17:37;;;;;;;28.45;18.83;;;;;;;;;;5055579;28;20035;-64
2023/02/03 03:20:05;;;;;;;29.40;18.23;;;;;;;;;;5037925;28;20017;-64
2023/02/03 03:22:34;;;;;;;28.48;18.52;;;;;;;;;;5037721;28;20025;-64
2023/02/03 03:25:05;;;;;;;27.83;18.00;;;;;;;;;;5036773;28;20024;-64
2023/02/03 03:27:34;;;;;;;27.83;18.63;;;;;;;;;;5037515;28;20548;-65
2023/02/03 03:30:02;;;;;;;33.28;18.30;;;;;;;;;;5054787;28;20033;-64
2023/02/03 03:32:31;;;;;;;26.67;19.27;;;;;;;;;;5036803;28;20128;-64
2023/02/03 03:34:58;;;;;;;25.45;17.65;;;;;;;;;;5036413;28;20051;-64
2023/02/03 03:37:27;;;;;;;25.73;17.27;;;;;;;;;;5054803;28;20025;-65
2023/02/03 03:39:53;;;;;;;22.92;15.15;;;;;;;;;;5055016;28;20563;-64
2023/02/03 03:42:37;;;;;;;29.75;16.50;;;;;;;;;;5036837;28;20056;-64
2023/02/03 03:45:07;;;;;;;25.80;16.95;;;;;;;;;;5054161;28;20041;-64
2023/02/03 03:47:37;;;;;;;29.00;19.77;;;;;;;;;;5054836;28;20025;-64
2023/02/03 03:50:07;;;;;;;23.60;16.13;;;;;;;;;;5036732;28;20025;-65
2023/02/03 03:52:35;;;;;;;24.23;16.23;;;;;;;;;;5054683;28;20037;-64
2023/02/03 03:55:03;;;;;;;31.10;18.23;;;;;;;;;;5054152;28;20107;-65
2023/02/03 03:57:55;;;;;;;22.85;17.02;;;;;;;;;;5054574;28;20029;-64
2023/02/03 04:00:23;;;;;;;24.38;15.60;;;;;;;;;;5034110;28;20087;-66
2023/02/03 04:02:52;;;;;;;22.52;16.38;;;;;;;;;;5054336;28;20017;-65
2023/02/03 04:05:18;;;;;;;31.02;16.45;;;;;;;;;;5036007;28;20036;-65
2023/02/03 04:07:45;;;;;;;22.90;15.90;;;;;;;;;;5054254;28;20028;-65
2023/02/03 04:10:34;;;;;;;24.80;16.17;;;;;;;;;;5054323;28;20029;-65
2023/02/03 04:13:00;;;;;;;23.08;15.52;;;;;;;;;;5024379;28;20051;-65
2023/02/03 04:15:27;;;;;;;22.17;15.13;;;;;;;;;;5033905;28;20040;-65
2023/02/03 04:17:53;;;;;;;25.45;16.70;;;;;;;;;;5034090;28;20474;-62
2023/02/03 04:20:19;;;;;;;24.25;14.98;;;;;;;;;;5016615;28;20021;-65
2023/02/03 04:22:45;;;;;;;23.88;15.75;;;;;;;;;;5034177;28;20030;-65
2023/02/03 04:25:11;;;;;;;24.40;17.83;;;;;;;;;;5015908;28;20052;-66
2023/02/03 04:27:37;;;;;;;33.38;15.35;;;;;;;;;;5034121;28;20025;-65
2023/02/03 04:30:04;;;;;;;22.63;14.13;;;;;;;;;;5034121;28;20030;-65
2023/02/03 04:32:30;;;;;;;21.65;15.13;;;;;;;;;;5015983;28;20037;-64
2023/02/03 04:34:56;;;;;;;22.05;14.93;;;;;;;;;;5043687;28;20035;-64
2023/02/03 04:37:23;;;;;;;27.85;16.45;;;;;;;;;;5042370;28;20021;-65
2023/02/03 04:39:51;;;;;;;22.50;14.10;;;;;;;;;;5040781;28;20022;-65
2023/02/03 04:42:17;;;;;;;19.73;14.75;;;;;;;;;;5019919;28;20017;-66
2023/02/03 04:44:43;;;;;;;23.00;14.43;;;;;;;;;;5052884;28;20036;-65
2023/02/03 04:47:09;;;;;;;23.02;14.43;;;;;;;;;;5035614;28;20024;-65
2023/02/03 04:49:35;;;;;;;26.98;14.00;;;;;;;;;;5035727;28;20029;-66
2023/02/03 04:52:01;;;;;;;20.25;14.77;;;;;;;;;;5053564;28;20047;-65
2023/02/03 04:54:27;;;;;;;24.27;14.82;;;;;;;;;;5026879;28;20036;-66
2023/02/03 04:56:53;;;;;;;20.63;14.27;;;;;;;;;;5035756;28;20033;-66
2023/02/03 04:59:19;;;;;;;20.00;14.02;;;;;;;;;;5053261;28;20024;-65
2023/02/03 05:01:45;;;;;;;24.90;14.30;;;;;;;;;;5053489;28;20082;-65
2023/02/03 05:04:11;;;;;;;19.90;13.75;;;;;;;;;;5052543;28;20028;-63
2023/02/03 05:06:37;;;;;;;21.80;14.43;;;;;;;;;;5053373;28;20021;-65
2023/02/03 05:09:03;;;;;;;19.25;13.90;;;;;;;;;;5053129;28;20481;-65
2023/02/03 05:11:29;;;;;;;18.65;13.55;;;;;;;;;;5053328;28;20024;-65
2023/02/03 05:13:56;;;;;;;19.35;14.13;;;;;;;;;;5052305;28;20587;-64
2023/02/03 05:16:22;;;;;;;22.65;14.98;;;;;;;;;;5035077;28;20025;-65
2023/02/03 05:18:48;;;;;;;22.00;13.27;;;;;;;;;;5034687;28;20234;-63
2023/02/03 05:21:14;;;;;;;20.92;14.45;;;;;;;;;;5035356;28;20131;-65
2023/02/03 05:23:40;;;;;;;20.33;13.70;;;;;;;;;;5052620;28;20159;-65
2023/02/03 05:26:07;;;;;;;24.23;15.27;;;;;;;;;;5053096;28;20060;-65
2023/02/03 05:28:33;;;;;;;23.15;14.00;;;;;;;;;;5035467;28;20033;-64
2023/02/03 05:30:59;;;;;;;23.40;14.40;;;;;;;;;;5052841;28;20482;-65
2023/02/03 05:33:25;;;;;;;27.40;14.68;;;;;;;;;;5051973;28;20499;-64
2023/02/03 05:35:51;;;;;;;20.73;13.88;;;;;;;;;;5034788;28;20029;-65
2023/02/03 05:38:17;;;;;;;19.45;13.73;;;;;;;;;;5034708;28;20477;-65
2023/02/03 05:43:28;;;;;;;19.15;13.82;;;;;;;;;;5052522;28;20036;-65
2023/02/03 05:45:54;;;;;;;18.15;13.43;;;;;;;;;;5034944;28;20408;-65
2023/02/03 05:48:20;;;;;;;21.05;14.43;;;;;;;;;;5052741;28;20040;-64
2023/02/03 05:50:46;;;;;;;19.90;14.70;;;;;;;;;;5034528;28;20075;-65
2023/02/03 05:53:12;;;;;;;17.35;13.77;;;;;;;;;;5035406;28;20480;-64
2023/02/03 05:55:38;;;;;;;21.85;14.07;;;;;;;;;;5043145;28;20025;-65
2023/02/03 05:58:04;;;;;;;22.10;13.90;;;;;;;;;;5058292;28;20048;-64
2023/02/03 06:00:30;;;;;;;21.90;14.60;;;;;;;;;;5052760;28;20077;-65
2023/02/03 06:02:58;;;;;;;20.02;13.75;;;;;;;;;;5052378;28;20133;-64
2023/02/03 06:05:24;;;;;;;21.00;13.93;;;;;;;;;;5051708;28;20400;-65
2023/02/03 06:07:51;;;;;;;19.10;13.80;;;;;;;;;;5034519;28;20271;-64
2023/02/03 06:10:17;;;;;;;19.45;13.95;;;;;;;;;;5025137;28;20104;-62
2023/02/03 06:12:43;;;;;;;18.33;13.73;;;;;;;;;;5015039;28;20031;-64
2023/02/03 06:15:09;;;;;;;19.10;13.75;;;;;;;;;;5031914;28;20033;-65
2023/02/03 06:17:35;;;;;;;18.48;13.30;;;;;;;;;;5014814;28;20116;-65
2023/02/03 06:20:05;;;;;;;21.52;12.90;;;;;;;;;;5014540;28;20057;-64
2023/02/03 06:22:31;;;;;;;21.08;13.25;;;;;;;;;;5032694;28;20147;-64
2023/02/03 06:24:57;;;;;;;21.75;14.23;;;;;;;;;;5031825;28;20506;-65
2023/02/03 06:27:23;;;;;;;19.35;13.05;;;;;;;;;;5024250;28;20167;-66
2023/02/03 06:29:49;;;;;;;24.27;13.60;;;;;;;;;;5034456;28;20032;-65
2023/02/03 06:34:44;;;;;;;20.17;13.35;;;;;;;;;;5048316;28;19924;-56
2023/02/03 06:37:10;;;;;;;18.58;12.98;;;;;;;;;;5050934;28;20155;-60
2023/02/03 06:39:36;;;;;;;18.50;13.10;;;;;;;;;;5032690;28;20151;-59
2023/02/03 06:42:02;;;;;;;19.83;12.95;;;;;;;;;;5050563;28;20029;-58
2023/02/03 06:44:28;;;;;;;22.15;13.80;;;;;;;;;;5049703;28;20021;-59
2023/02/03 06:46:55;;;;;;;25.33;13.88;;;;;;;;;;5050621;28;20032;-60
2023/02/03 06:49:21;;;;;;;19.02;12.50;;;;;;;;;;5032897;28;20025;-58
2023/02/03 06:51:47;;;;;;;19.73;13.63;;;;;;;;;;5032876;28;20020;-60
2023/02/03 06:54:14;;;;;;;24.20;13.05;;;;;;;;;;5049921;28;20040;-59
2023/02/03 06:56:40;;;;;;;21.45;13.13;;;;;;;;;;5050491;28;20111;-58
2023/02/03 06:59:07;;;;;;;17.38;12.95;;;;;;;;;;5051578;28;20485;-61
2023/02/03 07:01:33;;;;;;;20.67;13.48;;;;;;;;;;5033316;28;20393;-58
2023/02/03 07:03:59;;;;;;;20.17;13.00;;;;;;;;;;5049893;28;20024;-58
2023/02/03 07:06:30;;;;;;;17.98;13.32;;;;;;;;;;5032290;28;20021;-60
2023/02/03 07:08:57;;;;;;;19.98;12.93;;;;;;;;;;5032164;28;20538;-58
2023/02/03 07:11:23;;;;;;;20.40;12.93;;;;;;;;;;5050089;28;20029;-57
2023/02/03 07:13:49;;;;;;;19.52;13.10;;;;;;;;;;5049732;28;20481;-59
2023/02/03 07:16:15;;;;;;;20.80;13.52;;;;;;;;;;5050434;28;20029;-61
2023/02/03 07:18:41;;;;;;;43.70;13.40;;;;;;;;;;5050204;28;20078;-59
2023/02/03 07:21:07;;;;;;;17.45;13.00;;;;;;;;;;5050398;28;20020;-60
2023/02/03 07:23:34;;;;;;;23.63;13.90;;;;;;;;;;5049596;28;20025;-58
2023/02/03 07:26:03;;;;;;;21.80;13.63;;;;;;;;;;5032409;28;20029;-60
2023/02/03 07:28:33;;;;;;;20.70;13.48;;;;;;;;;;5050091;28;20090;-58
2023/02/03 07:31:00;;;;;;;17.90;12.95;;;;;;;;;;5051143;28;20452;-57
2023/02/03 07:33:26;;;;;;;23.83;13.65;;;;;;;;;;5032008;28;20036;-61
2023/02/03 07:35:56;;;;;;;22.20;14.40;;;;;;;;;;5050899;28;20025;-58
2023/02/03 07:38:22;;;;;;;20.95;13.38;;;;;;;;;;5050298;28;20477;-58
2023/02/03 07:40:48;;;;;;;19.83;12.73;;;;;;;;;;5050241;28;20029;-59
2023/02/03 07:43:21;;;;;;;21.63;14.20;;;;;;;;;;5053777;28;20029;-63
2023/02/03 07:45:47;;;;;;;19.75;14.00;;;;;;;;;;5035854;28;20021;-60
2023/02/03 07:48:13;;;;;;;21.13;13.75;;;;;;;;;;5035487;28;20025;-60
2023/02/03 07:50:40;;;;;;;23.48;14.60;;;;;;;;;;5054000;28;20090;-60
2023/02/03 07:53:10;;;;;;;18.67;13.98;;;;;;;;;;5053180;28;20376;-61
2023/02/03 07:55:39;;;;;;;20.45;14.30;;;;;;;;;;5053763;28;20435;-58
2023/02/03 07:58:05;;;;;;;22.30;15.25;;;;;;;;;;5053463;28;20497;-60
2023/02/03 08:00:31;;;;;;;28.77;15.82;;;;;;;;;;5053800;28;20050;-57
2023/02/03 08:02:57;;;;;;;21.55;14.52;;;;;;;;;;5035785;28;20049;-54
2023/02/03 08:05:23;;;;;;;21.70;14.80;;;;;;;;;;5052899;28;20469;-58
2023/02/03 08:07:49;;;;;;;20.83;14.80;;;;;;;;;;5053885;28;20033;-55
2023/02/03 08:10:16;;;;;;;23.77;14.10;;;;;;;;;;5035785;28;20123;-58
2023/02/03 08:12:43;;;;;;;21.92;13.43;;;;;;;;;;5053199;28;20491;-58
2023/02/03 08:15:10;;;;;;;23.08;14.43;;;;;;;;;;5052870;28;20029;-60
2023/02/03 08:17:38;;;;;;;20.65;15.30;;;;;;;;;;5053315;28;20025;-60
2023/02/03 08:20:04;;;;;;;;;;;;;;;;;;5053983;28;20824;-60
2023/02/03 08:22:30;;;;;;;20.67;15.43;;;;;;;;;;5053313;28;19991;-60
2023/02/03 08:24:56;;;;;;;21.60;15.27;;;;;;;;;;5052498;28;20017;-60
2023/02/03 08:27:23;;;;;;;22.17;15.02;;;;;;;;;;5053070;28;20025;-58
2023/02/03 08:29:49;;;;;;;22.85;14.43;;;;;;;;;;5053205;28;20033;-60
2023/02/03 08:32:17;;;;;;;19.95;13.60;;;;;;;;;;5052972;28;20083;-61
2023/02/03 08:34:43;;;;;;;22.20;14.93;;;;;;;;;;5052137;28;20054;-59
2023/02/03 08:37:11;;;;;;;19.85;14.23;;;;;;;;;;5051689;28;20036;-57
2023/02/03 08:39:37;;;;;;;27.83;16.52;;;;;;;;;;5052760;28;20186;-57
2023/02/03 08:42:04;;;;;;;22.92;15.27;;;;;;;;;;5035187;28;20363;-57
2023/02/03 08:44:30;;;;;;;23.90;14.90;;;;;;;;;;5052212;28;20282;-60
2023/02/03 08:46:56;;;;;;;25.42;15.18;;;;;;;;;;5034761;28;20036;-59
2023/02/03 08:49:23;;;;;;;22.15;13.73;;;;;;;;;;5052777;28;20501;-58
2023/02/03 08:51:49;;;;;;;23.17;14.70;;;;;;;;;;5034507;28;20175;-60
2023/02/03 08:54:15;;;;;;;29.52;14.82;;;;;;;;;;5033688;28;20029;-58
2023/02/03 08:56:41;;;;;;;21.40;14.88;;;;;;;;;;5052528;28;20037;-61
2023/02/03 08:59:07;;;;;;;21.00;14.43;;;;;;;;;;5052654;28;20079;-59
2023/02/03 09:01:33;;;;;;;19.65;14.38;;;;;;;;;;5052863;28;20079;-60
2023/02/03 09:04:05;;;;;;;20.42;14.48;;;;;;;;;;5051901;28;20033;-62
2023/02/03 09:06:31;;;;;;;22.33;15.43;;;;;;;;;;5052443;28;20396;-59
2023/02/03 09:08:57;;;;;;;21.23;14.57;;;;;;;;;;5052370;28;20021;-62
2023/02/03 09:11:24;;;;;;;21.67;14.98;;;;;;;;;;5034321;28;20051;-60
2023/02/03 09:13:50;;;;;;;23.75;15.77;;;;;;;;;;5051324;28;20025;-61
2023/02/03 09:16:20;;;;;;;20.83;13.80;;;;;;;;;;5033706;28;20071;-60
2023/02/03 09:18:46;;;;;;;23.65;15.05;;;;;;;;;;5051749;28;20477;-61
2023/02/03 09:21:14;;;;;;;22.55;14.50;;;;;;;;;;5052317;28;20033;-60
2023/02/03 09:23:41;;;;;;;21.90;15.20;;;;;;;;;;5051128;28;20388;-59
2023/02/03 09:26:08;;;;;;;23.67;16.15;;;;;;;;;;5052107;28;20021;-61
2023/02/03 09:28:34;;;;;;;21.75;15.15;;;;;;;;;;5052100;28;20035;-63
2023/02/03 09:31:01;;;;;;;20.42;14.85;;;;;;;;;;5034084;28;20446;-62
2023/02/03 09:33:27;;;;;;;20.77;15.48;;;;;;;;;;5051052;28;20074;-58
2023/02/03 09:35:53;;;;;;;22.10;15.13;;;;;;;;;;5051667;28;20025;-56
2023/02/03 09:38:20;;;;;;;22.13;14.57;;;;;;;;;;5051771;28;20099;-59
2023/02/03 09:40:47;;;;;;;24.85;15.00;;;;;;;;;;5034074;28;20079;-58
2023/02/03 09:43:13;;;;;;;23.25;14.88;;;;;;;;;;5050942;28;20477;-58
2023/02/03 09:45:39;;;;;;;26.45;15.45;;;;;;;;;;5034282;28;20481;-57
2023/02/03 09:48:16;;;;;;;21.02;14.73;;;;;;;;;;5052522;28;20044;-58
2023/02/03 09:50:43;;;;;;;20.92;14.80;;;;;;;;;;5034942;28;20025;-55
2023/02/03 09:53:25;;;;;;;23.50;14.50;;;;;;;;;;5033841;28;20083;-59
2023/02/03 09:55:51;;;;;;;19.73;14.30;;;;;;;;;;5052660;28;20037;-60
2023/02/03 09:58:19;;;;;;;24.13;15.23;;;;;;;;;;5051949;28;20032;-58
2023/02/03 10:00:48;;;;;;;25.88;15.52;;;;;;;;;;5052968;28;20021;-60
2023/02/03 10:03:20;;;;;;;23.08;14.25;;;;;;;;;;5051335;28;20025;-57
2023/02/03 10:06:15;;;;;;;19.48;13.95;;;;;;;;;;5051323;28;20127;-60
2023/02/03 10:08:41;;;;;;;27.35;16.02;;;;;;;;;;5039245;28;20033;-59
2023/02/03 10:11:20;;;;;;;25.92;15.18;;;;;;;;;;5051958;28;20055;-61
2023/02/03 10:13:58;;;;;;;22.10;15.90;;;;;;;;;;5033205;28;20104;-64
2023/02/03 10:16:53;;;;;;;23.42;13.95;;;;;;;;;;5051434;28;20477;-61
2023/02/03 10:19:21;;;;;;;22.95;15.00;;;;;;;;;;5051084;28;20393;-60
2023/02/03 10:21:58;;;;;;;25.20;14.15;;;;;;;;;;5051149;28;20539;-59
2023/02/03 10:24:27;;;;;;;22.13;15.60;;;;;;;;;;5050486;28;20040;-58
2023/02/03 10:26:54;;;;;;;22.70;15.88;;;;;;;;;;5051871;28;20025;-58
2023/02/03 10:29:22;;;;;;;22.08;15.63;;;;;;;;;;5033274;28;20404;-58
2023/02/03 10:31:48;;;;;;;20.45;15.07;;;;;;;;;;5051613;28;20025;-58
2023/02/03 10:34:15;;;;;;;21.73;15.98;;;;;;;;;;5048485;28;20125;-62
2023/02/03 10:36:45;;;;;;;19.95;16.10;;;;;;;;;;5051174;28;20025;-60
2023/02/03 10:39:10;;;;;;;23.63;17.13;;;;;;;;;;5050813;28;20165;-60
2023/02/03 10:41:37;;;;;;;24.42;16.77;;;;;;;;;;5051023;28;20113;-60
2023/02/03 10:44:05;;;;;;;23.67;16.90;;;;;;;;;;5050328;28;20032;-59
2023/02/03 10:46:33;;;;;;;24.20;16.55;;;;;;;;;;5051203;28;20461;-60
2023/02/03 10:48:59;;;;;;;20.17;15.93;;;;;;;;;;5051386;28;20535;-59
2023/02/03 10:51:29;;;;;;;22.05;15.18;;;;;;;;;;5055045;28;20097;-60
2023/02/03 10:53:55;;;;;;;25.13;16.25;;;;;;;;;;5065279;28;20524;-61
2023/02/03 10:56:38;;;;;;;22.67;15.20;;;;;;;;;;5058121;28;20086;-62
2023/02/03 10:59:05;;;;;;;28.67;15.85;;;;;;;;;;5053062;28;20074;-63
2023/02/03 11:01:44;;;;;;;21.65;14.98;;;;;;;;;;5050468;28;20025;-60
2023/02/03 11:04:23;;;;;;;20.45;15.63;;;;;;;;;;5045916;28;20025;-59
2023/02/03 11:06:54;;;;;;;24.05;16.48;;;;;;;;;;5041943;28;20040;-62
2023/02/03 11:09:28;;;;;;;26.10;17.10;;;;;;;;;;5046638;28;20397;-62
2023/02/03 11:12:13;;;;;;;23.20;16.17;;;;;;;;;;5042352;28;20163;-62
2023/02/03 11:14:42;;;;;;;23.92;17.15;;;;;;;;;;5050237;28;20519;-62
2023/02/03 11:17:12;;;;;;;22.27;17.40;;;;;;;;;;5052422;28;20025;-62
2023/02/03 11:19:38;;;;;;;23.25;17.00;;;;;;;;;;5047842;28;20392;-63
2023/02/03 11:22:05;;;;;;;26.85;20.08;;;;;;;;;;5046339;28;20070;-63
2023/02/03 11:24:32;;;;;;;25.75;21.95;;;;;;;;;;5045628;28;20132;-62
2023/02/03 11:26:58;;;;;;;31.48;28.52;;;;;;;;;;5050545;28;20022;-61
2023/02/03 11:29:28;;;;;;;36.42;32.70;;;;;;;;;;5049301;28;20087;-62
2023/02/03 11:31:55;;;;;;;34.05;30.95;;;;;;;;;;5053814;28;20435;-61
2023/02/03 11:34:24;;;;;;;35.47;31.95;;;;;;;;;;5053133;28;20040;-62
2023/02/03 11:36:51;;;;;;;35.05;31.60;;;;;;;;;;5053753;28;20026;-62
2023/02/03 11:39:22;;;;;;;35.72;32.25;;;;;;;;;;5053557;28;20037;-62
2023/02/03 11:41:49;;;;;;;35.17;31.98;;;;;;;;;;5035765;28;20083;-64
2023/02/03 11:44:22;;;;;;;32.72;29.80;;;;;;;;;;5053145;28;20020;-58
2023/02/03 11:46:56;;;;;;;32.75;29.50;;;;;;;;;;5053530;28;20024;-61
2023/02/03 11:49:36;;;;;;;32.42;29.35;;;;;;;;;;5053264;28;20098;-61
2023/02/03 11:52:16;;;;;;;33.25;30.10;;;;;;;;;;5035674;28;20086;-62
2023/02/03 11:54:49;;;;;;;34.83;31.40;;;;;;;;;;5052373;28;20095;-63
2023/02/03 11:57:36;;;;;;;35.47;32.13;;;;;;;;;;5053357;28;20116;-62
2023/02/03 12:00:02;;;;;;;30.10;27.33;;;;;;;;;;5053637;28;20474;-63
2023/02/03 12:02:52;;;;;;;27.50;24.65;;;;;;;;;;5053232;28;20078;-62
2023/02/03 12:05:25;;;;;;;27.73;25.02;;;;;;;;;;5044909;28;20086;-58
2023/02/03 12:08:20;;;;;;;26.00;23.25;;;;;;;;;;5036130;28;20032;-61
2023/02/03 12:10:46;;;;;;;28.67;24.58;;;;;;;;;;4983569;28;20201;-63
2023/02/03 12:13:24;;;;;;;30.95;24.85;;;;;;;;;;5052712;28;20049;-61
2023/02/03 12:15:57;;;;;;;25.77;23.05;;;;;;;;;;5053352;28;20051;-63
2023/02/03 12:18:33;;;;;;;29.60;24.00;;;;;;;;;;5053590;28;20055;-59
2023/02/03 12:21:05;;;;;;;25.55;23.05;;;;;;;;;;5053982;28;20025;-62
2023/02/03 12:23:42;;;;;;;24.38;21.95;;;;;;;;;;5052438;28;20384;-63
2023/02/03 12:26:16;;;;;;;31.88;23.90;;;;;;;;;;5035069;28;20021;-58
2023/02/03 12:28:48;;;;;;;25.25;22.50;;;;;;;;;;5034717;28;20059;-59
2023/02/03 12:31:20;;;;;;;25.45;22.27;;;;;;;;;;5053126;28;20478;-62
2023/02/03 12:33:52;;;;;;;29.30;24.00;;;;;;;;;;5068350;22;20041;-65
2023/02/03 12:36:18;;;;;;;28.30;22.55;;;;;;;;;;5035449;28;20029;-66
2023/02/03 12:38:55;;;;;;;27.80;23.30;;;;;;;;;;5053383;28;20215;-66
2023/02/03 12:41:24;;;;;;;26.20;22.83;;;;;;;;;;5035824;28;20029;-67
2023/02/03 12:43:52;;;;;;;29.88;22.98;;;;;;;;;;5035651;28;20301;-67
2023/02/03 12:46:30;;;;;;;28.95;22.77;;;;;;;;;;5053834;28;20448;-66
2023/02/03 12:49:15;;;;;;;28.15;21.88;;;;;;;;;;5035799;28;20029;-68
2023/02/03 12:51:41;;;;;;;25.45;20.67;;;;;;;;;;5050408;28;20124;-65
2023/02/03 12:54:13;;;;;;;23.10;20.75;;;;;;;;;;5053061;28;20057;-65
2023/02/03 12:56:44;;;;;;;24.75;21.02;;;;;;;;;;5054647;28;20016;-65
2023/02/03 12:59:14;;;;;;;29.25;21.60;;;;;;;;;;5053520;28;20666;-64
2023/02/03 13:01:53;;;;;;;27.08;21.35;;;;;;;;;;5032358;28;20123;-66
2023/02/03 13:04:34;;;;;;;26.60;21.88;;;;;;;;;;5021247;28;20101;-65
2023/02/03 13:07:00;;;;;;;26.05;19.23;;;;;;;;;;5050500;28;20025;-63
2023/02/03 13:09:29;;;;;;;24.13;19.60;;;;;;;;;;5035131;28;20111;-64
2023/02/03 13:12:13;;;;;;;22.95;19.15;;;;;;;;;;5043006;28;20025;-65
2023/02/03 13:14:42;;;;;;;28.27;20.13;;;;;;;;;;5015116;28;20065;-66
2023/02/03 13:17:12;;;;;;;26.70;21.55;;;;;;;;;;5037529;28;20402;-64
2023/02/03 13:19:44;;;;;;;30.77;20.95;;;;;;;;;;5052636;28;20500;-66
2023/02/03 13:22:11;;;;;;;31.50;19.75;;;;;;;;;;5028829;28;20113;-65
2023/02/03 13:24:38;;;;;;;26.60;19.98;;;;;;;;;;5029954;28;20094;-65
2023/02/03 13:27:04;;;;;;;29.33;19.77;;;;;;;;;;5032533;28;20021;-65
2023/02/03 13:29:30;;;;;;;28.10;19.52;;;;;;;;;;5032782;28;20049;-65
2023/02/03 13:32:00;;;;;;;31.60;19.25;;;;;;;;;;5032569;28;20037;-64
2023/02/03 13:34:32;;;;;;;28.42;19.38;;;;;;;;;;5031688;28;20513;-66
2023/02/03 13:37:13;;;;;;;29.42;18.83;;;;;;;;;;5031280;28;20119;-65
2023/02/03 13:39:39;;;;;;;27.13;19.25;;;;;;;;;;5031940;28;20087;-66
2023/02/03 13:42:24;;;;;;;29.05;17.70;;;;;;;;;;5031097;28;20029;-66
2023/02/03 13:44:56;;;;;;;29.40;17.20;;;;;;;;;;5030560;28;20045;-67
2023/02/03 13:47:26;;;;;;;32.28;17.23;;;;;;;;;;5032128;28;20052;-65
2023/02/03 13:49:55;;;;;;;37.05;16.75;;;;;;;;;;5031022;28;20060;-66
2023/02/03 13:52:33;;;;;;;26.15;17.02;;;;;;;;;;5030946;28;20440;-62
2023/02/03 13:55:00;;;;;;;26.90;15.95;;;;;;;;;;5036888;28;20021;-63
2023/02/03 13:57:36;;;;;;;30.73;15.45;;;;;;;;;;5052293;28;20092;-66
2023/02/03 14:00:08;;;;;;;31.33;14.40;;;;;;;;;;5034204;28;20692;-64
2023/02/03 14:02:42;;;;;;;28.63;13.20;;;;;;;;;;5051678;28;20017;-66
2023/02/03 14:05:28;;;;;;;28.25;13.82;;;;;;;;;;5032114;28;20120;-66
2023/02/03 14:07:54;;;;;;;27.23;13.27;;;;;;;;;;5010949;28;20093;-66
2023/02/03 14:10:24;;;;;;;31.08;14.23;;;;;;;;;;5032091;28;20075;-65
2023/02/03 14:12:50;;;;;;;24.00;12.63;;;;;;;;;;5033006;28;20454;-66
2023/02/03 14:15:19;;;;;;;26.23;12.90;;;;;;;;;;5031710;28;20105;-64
2023/02/03 14:17:45;;;;;;;23.52;13.23;;;;;;;;;;5031771;28;20017;-64
2023/02/03 14:20:27;;;;;;;26.50;12.50;;;;;;;;;;5032303;28;20028;-65
2023/02/03 14:23:08;;;;;;;25.55;12.73;;;;;;;;;;5013943;28;20109;-64
2023/02/03 14:25:39;;;;;;;29.65;13.25;;;;;;;;;;5032150;28;20446;-66
2023/02/03 14:28:08;;;;;;;25.88;12.90;;;;;;;;;;5014916;28;20041;-67
2023/02/03 14:30:54;;;;;;;29.30;14.40;;;;;;;;;;5031494;28;20030;-64
2023/02/03 14:33:24;;;;;;;22.05;12.70;;;;;;;;;;5013968;28;20033;-66
2023/02/03 14:35:50;;;;;;;26.33;12.45;;;;;;;;;;5034151;28;20025;-65